createdAt,value
2022-10-13T00:00:51.712Z,5.20
2022-10-13T00:02:53.285Z,5.78
2022-10-13T00:04:54.720Z,10.15
2022-10-13T00:06:56.199Z,9.65
2022-10-13T00:08:58.691Z,9.07
2022-10-13T00:11:00.490Z,8.32
2022-10-13T00:13:02.003Z,11.15
2022-10-13T00:15:05.617Z,9.70
2022-10-13T00:17:07.089Z,11.95
2022-10-13T00:19:12.881Z,7.75
2022-10-13T00:21:21.762Z,11.93
2022-10-13T00:23:23.658Z,10.27
2022-10-13T00:25:25.133Z,7.65
2022-10-13T00:27:26.618Z,9.98
2022-10-13T00:29:28.081Z,10.30
2022-10-13T00:31:31.885Z,4.45
2022-10-13T00:33:33.305Z,9.35
2022-10-13T00:35:40.773Z,12.63
2022-10-13T00:37:42.251Z,5.97
2022-10-13T00:39:43.735Z,8.23
2022-10-13T00:41:45.215Z,5.97
2022-10-13T00:43:48.590Z,9.50
2022-10-13T00:45:51.974Z,12.43
2022-10-13T00:47:57.698Z,7.25
2022-10-13T00:50:00.405Z,10.95
2022-10-13T00:52:01.893Z,7.22
2022-10-13T00:54:06.926Z,5.07
2022-10-13T00:56:11.365Z,11.32
2022-10-13T00:58:16.296Z,8.60
2022-10-13T01:00:17.861Z,8.05
2022-10-13T01:02:19.559Z,7.03
2022-10-13T01:04:24.567Z,12.57
2022-10-13T01:06:26.203Z,10.20
2022-10-13T01:08:29.059Z,6.03
2022-10-13T01:10:55.271Z,14.43
2022-10-13T01:13:28.002Z,11.30
2022-10-13T01:15:41.948Z,5.40
2022-10-13T01:18:21.598Z,10.25
2022-10-13T01:20:49.079Z,7.18
2022-10-13T01:23:12.443Z,5.90
2022-10-13T01:25:37.744Z,11.48
2022-10-13T01:27:55.347Z,6.30
2022-10-13T01:30:06.047Z,10.77
2022-10-13T01:32:09.237Z,11.77
2022-10-13T01:34:27.638Z,6.75
2022-10-13T01:36:48.301Z,8.93
2022-10-13T01:38:59.462Z,7.78
2022-10-13T01:41:33.463Z,8.15
2022-10-13T01:44:02.832Z,5.70
2022-10-13T01:46:36.007Z,8.25
2022-10-13T01:48:39.426Z,9.75
2022-10-13T01:50:40.967Z,13.68
2022-10-13T01:52:42.792Z,7.32
2022-10-13T01:54:49.844Z,9.93
2022-10-13T01:56:55.848Z,10.40
2022-10-13T01:59:01.750Z,9.13
2022-10-13T02:01:22.053Z,10.10
2022-10-13T02:04:01.029Z,9.30
2022-10-13T02:06:27.268Z,8.80
2022-10-13T02:08:39.114Z,6.70
2022-10-13T02:10:50.238Z,10.82
2022-10-13T02:12:57.802Z,8.65
2022-10-13T02:15:01.052Z,8.15
2022-10-13T02:17:05.361Z,10.25
2022-10-13T02:19:09.169Z,7.97
2022-10-13T02:21:10.660Z,9.27
2022-10-13T02:23:16.967Z,9.68
2022-10-13T02:25:18.428Z,6.55
2022-10-13T02:27:19.993Z,9.40
2022-10-13T02:29:21.548Z,8.93
2022-10-13T02:31:22.969Z,10.18
2022-10-13T02:33:24.433Z,12.02
2022-10-13T02:35:25.886Z,7.05
2022-10-13T02:37:27.387Z,5.63
2022-10-13T02:39:28.813Z,5.80
2022-10-13T02:41:30.255Z,8.75
2022-10-13T02:43:33.833Z,8.88
2022-10-13T02:45:35.289Z,13.65
2022-10-13T02:47:36.760Z,9.30
2022-10-13T02:49:38.459Z,10.57
2022-10-13T02:51:40.582Z,12.10
2022-10-13T02:53:42.162Z,11.98
2022-10-13T02:55:43.830Z,11.82
2022-10-13T02:57:45.264Z,11.23
2022-10-13T02:59:46.751Z,9.20
2022-10-13T03:01:48.220Z,18.05
2022-10-13T03:03:49.648Z,12.52
2022-10-13T03:05:51.081Z,11.90
2022-10-13T03:07:52.517Z,10.90
2022-10-13T03:09:53.941Z,9.80
2022-10-13T03:11:55.400Z,10.57
2022-10-13T03:13:56.853Z,12.35
2022-10-13T03:15:58.327Z,12.18
2022-10-13T03:18:00.035Z,10.82
2022-10-13T03:20:01.484Z,7.85
2022-10-13T03:22:02.958Z,12.05
2022-10-13T03:24:05.651Z,16.83
2022-10-13T03:26:07.067Z,13.90
2022-10-13T03:28:08.540Z,9.45
2022-10-13T03:30:10.676Z,14.95
2022-10-13T03:32:12.153Z,9.80
2022-10-13T03:34:16.093Z,10.30
2022-10-13T03:36:18.100Z,10.95
2022-10-13T03:38:19.508Z,11.95
2022-10-13T03:40:20.970Z,13.60
2022-10-13T03:42:22.898Z,14.25
2022-10-13T03:44:24.471Z,15.25
2022-10-13T03:46:28.867Z,15.05
2022-10-13T03:48:31.321Z,14.35
2022-10-13T03:50:32.754Z,20.67
2022-10-13T03:52:34.236Z,12.95
2022-10-13T03:54:35.676Z,15.35
2022-10-13T03:56:37.224Z,16.50
2022-10-13T03:58:38.651Z,22.02
2022-10-13T04:00:40.181Z,13.63
2022-10-13T04:02:41.647Z,16.67
2022-10-13T04:04:43.152Z,18.10
2022-10-13T04:06:44.578Z,16.45
2022-10-13T04:08:46.070Z,13.10
2022-10-13T04:10:47.516Z,17.70
2022-10-13T04:12:49.293Z,18.77
2022-10-13T04:14:50.743Z,18.17
2022-10-13T04:16:52.581Z,14.95
2022-10-13T04:19:04.072Z,14.73
2022-10-13T04:21:10.732Z,14.73
2022-10-13T04:23:12.391Z,17.80
2022-10-13T04:25:13.908Z,22.08
2022-10-13T04:27:16.953Z,23.50
2022-10-13T04:29:18.397Z,18.75
2022-10-13T04:31:23.209Z,19.67
2022-10-13T04:33:24.637Z,15.75
2022-10-13T04:35:26.196Z,21.73
2022-10-13T04:37:27.636Z,13.15
2022-10-13T04:39:29.062Z,17.27
2022-10-13T04:41:30.534Z,18.17
2022-10-13T04:43:32.989Z,19.30
2022-10-13T04:45:34.415Z,31.63
2022-10-13T04:47:37.198Z,19.60
2022-10-13T04:49:38.716Z,24.35
2022-10-13T04:51:40.148Z,25.55
2022-10-13T04:53:41.931Z,16.90
2022-10-13T04:55:43.362Z,19.17
2022-10-13T04:57:44.834Z,14.73
2022-10-13T04:59:46.651Z,16.02
2022-10-13T05:01:48.128Z,19.65
2022-10-13T05:04:01.036Z,15.30
2022-10-13T05:06:02.714Z,23.30
2022-10-13T05:08:04.278Z,20.17
2022-10-13T05:10:06.351Z,21.40
2022-10-13T05:12:07.965Z,18.63
2022-10-13T05:14:09.442Z,17.48
2022-10-13T05:16:13.220Z,19.77
2022-10-13T05:18:14.813Z,15.15
2022-10-13T05:20:17.698Z,19.85
2022-10-13T05:22:19.374Z,21.48
2022-10-13T05:24:30.820Z,16.60
2022-10-13T05:26:36.026Z,23.17
2022-10-13T05:28:38.517Z,22.63
2022-10-13T05:30:40.006Z,21.77
2022-10-13T05:32:41.463Z,19.83
2022-10-13T05:34:43.022Z,25.85
2022-10-13T05:36:44.437Z,20.08
2022-10-13T05:38:49.480Z,18.88
2022-10-13T05:40:50.893Z,19.48
2022-10-13T05:42:52.602Z,21.60
2022-10-13T05:44:54.071Z,19.20
2022-10-13T05:46:56.343Z,25.15
2022-10-13T05:48:58.007Z,24.30
2022-10-13T05:51:02.004Z,24.95
2022-10-13T05:53:03.484Z,23.75
2022-10-13T05:55:09.273Z,24.38
2022-10-13T05:57:21.406Z,30.05
2022-10-13T05:59:27.229Z,21.80
2022-10-13T06:01:32.830Z,19.95
2022-10-13T06:03:35.525Z,25.25
2022-10-13T06:05:37.433Z,27.67
2022-10-13T06:07:38.882Z,23.42
2022-10-13T06:09:41.783Z,25.42
2022-10-13T06:11:43.259Z,37.13
2022-10-13T06:13:44.691Z,24.55
2022-10-13T06:15:46.285Z,22.90
2022-10-13T06:17:47.797Z,22.63
2022-10-13T06:19:49.278Z,24.45
2022-10-13T06:21:50.982Z,29.42
2022-10-13T06:23:52.462Z,26.90
2022-10-13T06:25:54.166Z,23.15
2022-10-13T06:28:00.424Z,32.03
2022-10-13T06:30:02.196Z,29.58
2022-10-13T06:32:04.167Z,32.67
2022-10-13T06:34:05.597Z,33.03
2022-10-13T06:36:07.604Z,27.88
2022-10-13T06:38:09.811Z,28.13
2022-10-13T06:40:11.580Z,24.75
2022-10-13T06:42:13.074Z,23.55
2022-10-13T06:44:14.497Z,26.13
2022-10-13T06:46:16.034Z,23.92
2022-10-13T06:48:17.482Z,28.48
2022-10-13T06:50:18.933Z,30.55
2022-10-13T06:52:20.690Z,28.10
2022-10-13T06:54:22.346Z,28.75
2022-10-13T06:56:24.017Z,30.95
2022-10-13T06:58:26.109Z,24.55
2022-10-13T07:00:27.591Z,28.02
2022-10-13T07:02:29.067Z,26.95
2022-10-13T07:04:30.498Z,26.60
2022-10-13T07:06:31.962Z,25.80
2022-10-13T07:08:34.627Z,30.42
2022-10-13T07:10:38.798Z,23.35
2022-10-13T07:12:41.030Z,32.42
2022-10-13T07:14:43.802Z,24.27
2022-10-13T07:16:47.862Z,22.77
2022-10-13T07:18:49.894Z,26.75
2022-10-13T07:20:51.317Z,29.02
2022-10-13T07:22:53.528Z,24.88
2022-10-13T07:24:54.954Z,29.38
2022-10-13T07:26:56.637Z,26.33
2022-10-13T07:28:58.192Z,27.02
2022-10-13T07:30:59.711Z,29.45
2022-10-13T07:33:01.306Z,32.88
2022-10-13T07:35:03.695Z,31.48
2022-10-13T07:37:05.158Z,28.85
2022-10-13T07:39:08.158Z,34.03
2022-10-13T07:41:11.538Z,32.92
2022-10-13T07:43:13.405Z,25.48
2022-10-13T07:45:14.970Z,32.38
2022-10-13T07:47:16.389Z,30.23
2022-10-13T07:49:17.828Z,25.80
2022-10-13T07:51:19.962Z,30.08
2022-10-13T07:53:21.659Z,33.80
2022-10-13T07:55:23.125Z,32.38
2022-10-13T07:57:27.698Z,25.17
2022-10-13T07:59:29.406Z,27.10
2022-10-13T08:01:31.216Z,28.70
2022-10-13T08:03:32.873Z,27.63
2022-10-13T08:05:36.891Z,28.05
2022-10-13T08:07:39.295Z,24.88
2022-10-13T08:09:40.796Z,35.35
2022-10-13T08:11:42.226Z,26.60
2022-10-13T08:13:50.080Z,28.25
2022-10-13T08:15:51.627Z,27.53
2022-10-13T08:17:53.130Z,26.40
2022-10-13T08:19:54.717Z,28.42
2022-10-13T08:21:59.111Z,31.25
2022-10-13T08:24:01.223Z,27.27
2022-10-13T08:26:02.781Z,26.95
2022-10-13T08:28:04.972Z,24.15
2022-10-13T08:30:07.109Z,27.95
2022-10-13T08:32:08.611Z,23.23
2022-10-13T08:34:10.848Z,31.27
2022-10-13T08:36:12.333Z,24.20
2022-10-13T08:38:13.853Z,27.90
2022-10-13T08:40:19.350Z,26.35
2022-10-13T08:42:22.554Z,20.90
2022-10-13T08:47:46.993Z,24.48
2022-10-13T08:49:48.854Z,21.45
2022-10-13T08:51:50.326Z,26.23
2022-10-13T08:53:51.896Z,21.77
2022-10-13T08:56:16.156Z,26.17
2022-10-13T08:58:23.403Z,21.58
2022-10-13T09:00:24.880Z,29.50
2022-10-13T09:02:31.219Z,24.83
2022-10-13T09:04:41.055Z,20.13
2022-10-13T09:07:08.549Z,19.27
2022-10-13T09:09:12.402Z,19.73
2022-10-13T09:11:14.130Z,22.52
2022-10-13T09:13:15.585Z,18.95
2022-10-13T09:15:18.215Z,19.92
2022-10-13T09:17:26.417Z,20.83
2022-10-13T09:19:36.825Z,23.48
2022-10-13T09:21:38.320Z,20.92
2022-10-13T09:23:41.930Z,27.48
2022-10-13T09:25:46.106Z,23.15
2022-10-13T09:27:52.218Z,21.42
2022-10-13T09:29:53.675Z,23.95
2022-10-13T09:32:13.668Z,21.50
2022-10-13T09:34:23.944Z,23.52
2022-10-13T09:36:25.823Z,19.48
2022-10-13T09:38:27.723Z,22.50
2022-10-13T09:40:32.343Z,19.38
2022-10-13T09:42:34.065Z,22.40
2022-10-13T09:44:35.752Z,27.08
2022-10-13T09:46:46.576Z,24.85
2022-10-13T09:48:51.872Z,18.85
2022-10-13T09:50:55.605Z,23.13
2022-10-13T09:53:17.577Z,26.08
2022-10-13T09:55:37.114Z,22.95
2022-10-13T09:57:51.580Z,21.88
2022-10-13T10:00:04.359Z,23.83
2022-10-13T10:02:32.690Z,30.25
2022-10-13T10:04:43.026Z,21.10
2022-10-13T10:06:46.133Z,21.88
2022-10-13T10:09:16.822Z,25.90
2022-10-13T10:11:40.889Z,33.28
2022-10-13T10:13:42.406Z,26.23
2022-10-13T10:15:55.887Z,27.15
2022-10-13T10:18:06.597Z,25.33
2022-10-13T10:20:20.005Z,21.60
2022-10-13T10:22:40.111Z,25.38
2022-10-13T10:25:18.323Z,23.45
2022-10-13T10:27:42.894Z,24.40
2022-10-13T10:30:04.731Z,20.02
2022-10-13T10:32:15.178Z,19.55
2022-10-13T10:34:28.732Z,23.42
2022-10-13T10:36:53.182Z,33.88
2022-10-13T10:39:01.218Z,23.30
2022-10-13T10:41:05.538Z,20.33
2022-10-13T10:43:28.436Z,21.10
2022-10-13T10:45:39.462Z,23.30
2022-10-13T10:47:44.740Z,20.60
2022-10-13T10:49:46.626Z,17.50
2022-10-13T10:51:49.021Z,24.00
2022-10-13T10:54:49.269Z,20.30
2022-10-13T10:57:12.698Z,12.48
2022-10-13T10:59:26.858Z,21.55
2022-10-13T11:01:52.064Z,17.40
2022-10-13T11:04:31.320Z,21.83
2022-10-13T11:06:36.231Z,21.75
2022-10-13T11:08:37.678Z,19.58
2022-10-13T11:10:39.234Z,18.02
2022-10-13T11:12:53.178Z,19.17
2022-10-13T11:14:57.236Z,22.13
2022-10-13T11:17:05.050Z,23.77
2022-10-13T11:19:25.064Z,17.48
2022-10-13T11:21:26.514Z,22.13
2022-10-13T11:23:33.006Z,20.30
2022-10-13T11:25:43.145Z,20.38
2022-10-13T11:27:44.969Z,21.60
2022-10-13T11:29:51.503Z,22.85
2022-10-13T11:31:55.072Z,17.25
2022-10-13T11:34:01.827Z,13.63
2022-10-13T11:36:32.740Z,25.15
2022-10-13T11:38:38.401Z,17.55
2022-10-13T11:40:59.144Z,19.60
2022-10-13T11:43:09.612Z,24.13
2022-10-13T11:45:40.841Z,21.23
2022-10-13T11:48:06.932Z,14.40
2022-10-13T11:50:40.802Z,17.33
2022-10-13T11:53:11.454Z,22.77
2022-10-13T11:55:19.842Z,15.13
2022-10-13T11:57:26.759Z,13.00
2022-10-13T11:59:33.569Z,14.23
2022-10-13T12:01:34.985Z,13.60
2022-10-13T12:03:39.684Z,13.80
2022-10-13T12:05:41.121Z,15.45
2022-10-13T12:07:42.927Z,16.20
2022-10-13T12:09:54.957Z,18.08
2022-10-13T12:11:59.613Z,13.68
2022-10-13T12:14:02.139Z,12.18
2022-10-13T12:16:06.618Z,14.98
2022-10-13T12:18:24.195Z,13.75
2022-10-13T12:20:29.338Z,13.98
2022-10-13T12:22:30.985Z,13.55
2022-10-13T12:24:32.474Z,15.98
2022-10-13T12:26:34.037Z,15.35
2022-10-13T12:28:51.303Z,15.75
2022-10-13T12:30:58.379Z,16.77
2022-10-13T12:33:00.955Z,20.83
2022-10-13T12:35:19.963Z,16.40
2022-10-13T12:37:28.312Z,19.63
2022-10-13T12:39:33.071Z,15.13
2022-10-13T12:41:38.280Z,17.95
2022-10-13T12:43:40.594Z,17.35
2022-10-13T12:45:43.509Z,19.92
2022-10-13T12:47:44.884Z,16.27
2022-10-13T12:49:46.331Z,19.85
2022-10-13T12:51:50.516Z,18.58
2022-10-13T12:53:52.152Z,21.45
2022-10-13T12:55:58.884Z,19.77
2022-10-13T12:58:02.325Z,20.08
2022-10-13T13:00:19.429Z,19.52
2022-10-13T13:02:25.806Z,18.65
2022-10-13T13:04:40.841Z,20.48
2022-10-13T13:06:59.398Z,17.38
2022-10-13T13:11:37.180Z,19.77
2022-10-13T13:13:38.624Z,21.30
2022-10-13T13:15:41.320Z,19.13
2022-10-13T13:17:57.902Z,21.45
2022-10-13T13:20:00.419Z,18.57
2022-10-13T13:22:03.889Z,13.15
2022-10-13T13:24:16.237Z,15.38
2022-10-13T13:26:28.119Z,22.00
2022-10-13T13:28:32.201Z,16.67
2022-10-13T13:30:33.739Z,17.70
2022-10-13T13:32:35.192Z,17.48
2022-10-13T13:34:36.601Z,19.65
2022-10-13T13:36:38.100Z,15.35
2022-10-13T13:38:39.655Z,16.88
2022-10-13T13:40:41.109Z,18.88
2022-10-13T13:42:42.684Z,14.77
2022-10-13T13:44:44.219Z,15.98
2022-10-13T13:46:45.651Z,17.70
2022-10-13T13:48:47.191Z,14.48
2022-10-13T13:50:48.644Z,21.13
2022-10-13T13:52:50.449Z,15.10
2022-10-13T13:54:52.603Z,17.40
2022-10-13T13:56:58.610Z,18.48
2022-10-13T13:59:00.342Z,17.27
2022-10-13T14:01:01.794Z,15.45
2022-10-13T14:03:03.262Z,21.80
2022-10-13T14:05:05.124Z,15.43
2022-10-13T14:07:06.601Z,15.02
2022-10-13T14:09:08.027Z,13.52
2022-10-13T14:11:09.722Z,14.90
2022-10-13T14:13:11.142Z,18.30
2022-10-13T14:15:12.646Z,16.38
2022-10-13T14:17:14.102Z,18.35
2022-10-13T14:19:15.552Z,16.08
2022-10-13T14:21:17.693Z,15.80
2022-10-13T14:23:19.457Z,14.90
2022-10-13T14:25:20.884Z,14.32
2022-10-13T14:27:22.891Z,15.65
2022-10-13T14:29:24.496Z,17.08
2022-10-13T14:31:26.040Z,19.00
2022-10-13T14:33:27.463Z,17.17
2022-10-13T14:35:29.229Z,13.45
2022-10-13T14:37:33.637Z,15.57
2022-10-13T14:39:35.462Z,16.65
2022-10-13T14:41:38.775Z,16.52
2022-10-13T14:43:40.268Z,16.55
2022-10-13T14:45:41.673Z,13.85
2022-10-13T14:47:43.223Z,14.93
2022-10-13T14:49:44.661Z,19.73
2022-10-13T14:51:46.115Z,19.48
2022-10-13T14:53:47.551Z,13.43
2022-10-13T14:55:48.983Z,12.77
2022-10-13T14:57:50.449Z,16.08
2022-10-13T14:59:51.871Z,16.05
2022-10-13T15:01:53.357Z,12.75
2022-10-13T15:03:55.190Z,10.07
2022-10-13T15:05:56.652Z,10.00
2022-10-13T15:07:58.170Z,11.40
2022-10-13T15:10:06.838Z,16.63
2022-10-13T15:12:08.305Z,15.05
2022-10-13T15:14:09.862Z,17.13
2022-10-13T15:16:27.502Z,15.25
2022-10-13T15:18:29.429Z,15.10
2022-10-13T15:20:31.044Z,13.73
2022-10-13T15:22:32.477Z,15.80
2022-10-13T15:24:33.960Z,21.15
2022-10-13T15:26:36.796Z,12.65
2022-10-13T15:28:41.328Z,14.73
2022-10-13T15:30:42.782Z,13.60
2022-10-13T15:32:44.214Z,17.45
2022-10-13T15:34:45.943Z,12.57
2022-10-13T15:36:47.360Z,10.15
2022-10-13T15:38:49.169Z,19.38
2022-10-13T15:40:50.903Z,14.52
2022-10-13T15:42:52.794Z,14.98
2022-10-13T15:45:11.083Z,15.35
2022-10-13T15:47:17.117Z,17.85
2022-10-13T15:49:19.017Z,13.27
2022-10-13T15:51:23.976Z,13.73
2022-10-13T15:53:25.987Z,17.60
2022-10-13T15:55:28.907Z,18.65
2022-10-13T15:57:31.101Z,15.57
2022-10-13T15:59:32.546Z,12.98
2022-10-13T16:01:34.212Z,13.65
2022-10-13T16:03:36.427Z,16.80
2022-10-13T16:05:42.378Z,14.20
2022-10-13T16:07:44.218Z,12.77
2022-10-13T16:09:45.719Z,15.05
2022-10-13T16:11:47.154Z,14.25
2022-10-13T16:13:51.360Z,12.48
2022-10-13T16:15:59.700Z,14.00
2022-10-13T16:18:01.216Z,19.90
2022-10-13T16:20:04.002Z,17.83
2022-10-13T16:22:05.428Z,15.93
2022-10-13T16:24:07.160Z,12.55
2022-10-13T16:26:09.259Z,15.82
2022-10-13T16:28:10.740Z,12.82
2022-10-13T16:30:12.760Z,14.88
2022-10-13T16:32:14.260Z,13.70
2022-10-13T16:34:16.082Z,15.10
2022-10-13T16:36:19.521Z,21.95
2022-10-13T16:38:20.958Z,12.80
2022-10-13T16:40:22.403Z,11.57
2022-10-13T16:42:23.896Z,13.48
2022-10-13T16:44:25.527Z,18.00
2022-10-13T16:46:27.329Z,23.10
2022-10-13T16:48:30.879Z,13.68
2022-10-13T16:50:32.323Z,17.60
2022-10-13T16:52:33.925Z,20.35
2022-10-13T16:54:36.374Z,26.15
2022-10-13T16:56:37.888Z,20.02
2022-10-13T16:58:44.812Z,15.23
2022-10-13T17:00:46.343Z,14.57
2022-10-13T17:02:47.854Z,19.13
2022-10-13T17:04:49.575Z,19.13
2022-10-13T17:06:51.061Z,20.70
2022-10-13T17:08:52.508Z,19.92
2022-10-13T17:10:58.313Z,27.60
2022-10-13T17:13:00.151Z,18.05
2022-10-13T17:15:01.662Z,17.60
2022-10-13T17:17:03.243Z,19.70
2022-10-13T17:19:04.809Z,17.42
2022-10-13T17:21:09.076Z,20.83
2022-10-13T17:23:10.494Z,18.83
2022-10-13T17:25:13.460Z,18.92
2022-10-13T17:27:16.508Z,20.45
2022-10-13T17:29:17.964Z,17.92
2022-10-13T17:31:21.988Z,19.23
2022-10-13T17:33:23.415Z,22.70
2022-10-13T17:35:24.900Z,23.17
2022-10-13T17:37:26.462Z,24.73
2022-10-13T17:39:28.476Z,18.67
2022-10-13T17:41:29.914Z,20.25
2022-10-13T17:43:33.326Z,21.95
2022-10-13T17:45:34.823Z,18.00
2022-10-13T17:47:36.255Z,23.15
2022-10-13T17:49:37.778Z,16.98
2022-10-13T17:51:41.353Z,20.35
2022-10-13T17:53:44.456Z,21.15
2022-10-13T17:55:45.898Z,19.90
2022-10-13T17:57:47.321Z,21.05
2022-10-13T17:59:48.853Z,17.67
2022-10-13T18:01:50.436Z,18.88
2022-10-13T18:03:54.598Z,20.05
2022-10-13T18:05:56.193Z,21.20
2022-10-13T18:07:58.263Z,21.75
2022-10-13T18:09:59.725Z,23.05
2022-10-13T18:12:01.164Z,16.98
2022-10-13T18:14:03.213Z,19.83
2022-10-13T18:16:09.297Z,20.13
2022-10-13T18:18:12.732Z,19.05
2022-10-13T18:20:14.185Z,18.95
2022-10-13T18:22:15.636Z,24.42
2022-10-13T18:24:17.227Z,20.20
2022-10-13T18:26:20.176Z,17.80
2022-10-13T18:28:21.711Z,17.42
2022-10-13T18:30:23.193Z,19.58
2022-10-13T18:32:24.890Z,21.13
2022-10-13T18:34:26.517Z,18.80
2022-10-13T18:36:30.403Z,17.80
2022-10-13T18:38:31.839Z,15.57
2022-10-13T18:40:33.322Z,17.33
2022-10-13T18:42:34.734Z,15.55
2022-10-13T18:44:36.224Z,16.70
2022-10-13T18:46:38.964Z,13.48
2022-10-13T18:48:40.920Z,17.98
2022-10-13T18:50:42.809Z,11.52
2022-10-13T18:52:44.336Z,15.00
2022-10-13T18:54:46.308Z,17.00
2022-10-13T18:56:47.880Z,14.40
2022-10-13T18:58:50.255Z,11.57
2022-10-13T19:00:52.721Z,13.55
2022-10-13T19:02:54.327Z,17.63
2022-10-13T19:04:55.753Z,13.68
2022-10-13T19:06:57.200Z,12.95
2022-10-13T19:09:01.828Z,16.85
2022-10-13T19:11:18.777Z,15.73
2022-10-13T19:13:20.272Z,15.88
2022-10-13T19:15:21.698Z,15.82
2022-10-13T19:17:23.452Z,13.82
2022-10-13T19:19:25.025Z,14.55
2022-10-13T19:21:26.647Z,19.55
2022-10-13T19:23:28.247Z,17.48
2022-10-13T19:25:29.810Z,21.98
2022-10-13T19:27:31.308Z,14.70
2022-10-13T19:29:34.173Z,16.13
2022-10-13T19:31:37.233Z,21.02
2022-10-13T19:33:44.729Z,14.35
2022-10-13T19:35:48.755Z,17.50
2022-10-13T19:37:50.173Z,13.80
2022-10-13T19:39:51.713Z,14.68
2022-10-13T19:41:55.769Z,18.13
2022-10-13T19:43:58.022Z,18.50
2022-10-13T19:45:59.990Z,16.20
2022-10-13T19:48:01.662Z,19.58
2022-10-13T19:50:03.721Z,16.23
2022-10-13T19:52:05.259Z,15.27
2022-10-13T19:54:06.701Z,17.92
2022-10-13T19:56:08.803Z,20.95
2022-10-13T19:58:10.624Z,13.70
2022-10-13T20:00:12.893Z,17.70
2022-10-13T20:02:14.442Z,15.77
2022-10-13T20:04:18.467Z,17.92
2022-10-13T20:06:21.072Z,18.80
2022-10-13T20:08:22.764Z,18.00
2022-10-13T20:10:24.311Z,16.02
2022-10-13T20:12:26.054Z,17.75
2022-10-13T20:14:27.495Z,20.13
2022-10-13T20:16:29.051Z,17.40
2022-10-13T20:18:30.489Z,14.30
2022-10-13T20:20:33.463Z,18.02
2022-10-13T20:22:34.905Z,14.20
2022-10-13T20:24:36.426Z,16.30
2022-10-13T20:26:39.867Z,18.85
2022-10-13T20:28:44.194Z,19.63
2022-10-13T20:30:45.665Z,14.85
2022-10-13T20:32:47.093Z,17.08
2022-10-13T20:34:48.517Z,18.20
2022-10-13T20:36:51.151Z,16.55
2022-10-13T20:38:52.953Z,20.85
2022-10-13T20:40:54.570Z,26.15
2022-10-13T20:42:56.009Z,16.02
2022-10-13T20:44:57.456Z,20.52
2022-10-13T20:46:58.934Z,19.00
2022-10-13T20:49:15.818Z,16.95
2022-10-13T20:51:19.458Z,26.13
2022-10-13T20:53:22.034Z,21.42
2022-10-13T20:55:23.487Z,18.88
2022-10-13T20:57:24.934Z,21.95
2022-10-13T20:59:26.790Z,22.75
2022-10-13T21:01:28.308Z,19.63
2022-10-13T21:03:30.383Z,20.35
2022-10-13T21:05:32.320Z,23.08
2022-10-13T21:07:33.746Z,20.88
2022-10-13T21:09:36.253Z,22.02
2022-10-13T21:11:39.530Z,25.65
2022-10-13T21:13:41.969Z,17.90
2022-10-13T21:15:45.237Z,25.02
2022-10-13T21:17:46.671Z,21.92
2022-10-13T21:19:48.103Z,20.85
2022-10-13T21:21:49.539Z,22.15
2022-10-13T21:23:52.603Z,27.85
2022-10-13T21:25:54.081Z,25.73
2022-10-13T21:27:56.557Z,22.08
2022-10-13T21:29:57.991Z,22.42
2022-10-13T21:31:59.458Z,24.75
2022-10-13T21:34:01.202Z,28.70
2022-10-13T21:36:16.105Z,24.23
2022-10-13T21:38:17.546Z,26.48
2022-10-13T21:40:18.964Z,23.52
2022-10-13T21:42:20.414Z,27.30
2022-10-13T21:44:21.852Z,25.08
2022-10-13T21:46:31.755Z,24.95
2022-10-13T21:48:33.187Z,33.33
2022-10-13T21:50:34.653Z,29.13
2022-10-13T21:52:36.354Z,23.50
2022-10-13T21:54:37.919Z,27.08
2022-10-13T21:56:40.877Z,27.80
2022-10-13T21:58:42.377Z,27.15
2022-10-13T22:00:43.839Z,27.17
2022-10-13T22:02:45.382Z,31.25
2022-10-13T22:04:46.821Z,26.80
2022-10-13T22:06:48.245Z,31.50
2022-10-13T22:08:52.254Z,30.38
2022-10-13T22:10:57.082Z,27.83
2022-10-13T22:12:58.816Z,31.02
2022-10-13T22:15:00.263Z,36.10
2022-10-13T22:17:01.701Z,31.77
2022-10-13T22:19:04.590Z,34.83
2022-10-13T22:21:08.130Z,26.77
2022-10-13T22:23:09.576Z,29.88
2022-10-13T22:25:10.981Z,35.60
2022-10-13T22:27:12.476Z,32.97
2022-10-13T22:29:17.988Z,30.77
2022-10-13T22:31:19.790Z,29.70
2022-10-13T22:33:21.296Z,31.42
2022-10-13T22:35:22.740Z,35.33
2022-10-13T22:37:24.304Z,31.95
2022-10-13T22:39:25.817Z,30.52
2022-10-13T22:41:27.270Z,33.47
2022-10-13T22:43:28.766Z,32.13
2022-10-13T22:45:30.244Z,31.92
2022-10-13T22:47:31.772Z,37.70
2022-10-13T22:49:33.204Z,32.35
2022-10-13T22:51:36.274Z,35.83
2022-10-13T22:53:38.641Z,34.55
2022-10-13T22:55:41.176Z,37.00
2022-10-13T22:57:42.676Z,37.35
2022-10-13T22:59:44.109Z,34.00
2022-10-13T23:01:45.580Z,41.72
2022-10-13T23:03:49.308Z,34.05
2022-10-13T23:05:50.834Z,35.88
2022-10-13T23:07:52.291Z,36.60
2022-10-13T23:09:53.722Z,38.55
2022-10-13T23:11:59.574Z,34.83
2022-10-13T23:14:02.466Z,37.22
2022-10-13T23:16:06.633Z,33.28
2022-10-13T23:18:08.052Z,37.97
2022-10-13T23:20:09.660Z,33.30
2022-10-13T23:22:11.070Z,40.08
2022-10-13T23:24:13.731Z,34.35
2022-10-13T23:26:17.525Z,48.72
2022-10-13T23:28:19.056Z,36.63
2022-10-13T23:30:20.534Z,33.58
2022-10-13T23:32:21.968Z,36.47
2022-10-13T23:34:23.728Z,44.58
2022-10-13T23:36:28.939Z,43.10
2022-10-13T23:38:31.564Z,36.67
2022-10-13T23:40:33.606Z,35.22
2022-10-13T23:42:35.057Z,39.28
2022-10-13T23:44:36.485Z,35.30
2022-10-13T23:46:38.022Z,38.20
2022-10-13T23:48:40.666Z,32.63
2022-10-13T23:50:42.436Z,36.83
2022-10-13T23:52:43.980Z,37.90
2022-10-13T23:54:45.432Z,34.03
2022-10-13T23:56:46.894Z,34.60
2022-10-13T23:58:49.325Z,34.83
